sensor_id;sensor_type;location;lat;lon;timestamp;P1;durP1;ratioP1;P2;durP2;ratioP2
72895;SDS011;61036;53.224;6.554;2023-03-12T00:00:28;7.60;;;4.17;;
72895;SDS011;61036;53.224;6.554;2023-03-12T00:02:54;9.40;;;4.37;;
72895;SDS011;61036;53.224;6.554;2023-03-12T00:05:20;7.70;;;4.60;;
72895;SDS011;61036;53.224;6.554;2023-03-12T00:07:46;6.93;;;4.20;;
72895;SDS011;61036;53.224;6.554;2023-03-12T00:10:12;9.33;;;4.43;;
72895;SDS011;61036;53.224;6.554;2023-03-12T00:12:38;6.47;;;3.77;;
72895;SDS011;61036;53.224;6.554;2023-03-12T00:15:05;8.63;;;4.47;;
72895;SDS011;61036;53.224;6.554;2023-03-12T00:17:31;10.20;;;4.07;;
72895;SDS011;61036;53.224;6.554;2023-03-12T00:19:58;8.67;;;4.27;;
72895;SDS011;61036;53.224;6.554;2023-03-12T00:22:24;7.40;;;3.93;;
72895;SDS011;61036;53.224;6.554;2023-03-12T00:24:52;9.30;;;4.03;;
72895;SDS011;61036;53.224;6.554;2023-03-12T00:27:20;9.37;;;3.63;;
72895;SDS011;61036;53.224;6.554;2023-03-12T00:29:46;7.20;;;3.77;;
72895;SDS011;61036;53.224;6.554;2023-03-12T00:32:11;8.93;;;4.17;;
72895;SDS011;61036;53.224;6.554;2023-03-12T00:34:37;8.50;;;4.33;;
72895;SDS011;61036;53.224;6.554;2023-03-12T00:37:03;7.50;;;4.07;;
72895;SDS011;61036;53.224;6.554;2023-03-12T00:39:28;7.47;;;3.53;;
72895;SDS011;61036;53.224;6.554;2023-03-12T00:41:54;9.93;;;3.93;;
72895;SDS011;61036;53.224;6.554;2023-03-12T00:44:19;7.33;;;4.30;;
72895;SDS011;61036;53.224;6.554;2023-03-12T00:46:45;6.23;;;4.00;;
72895;SDS011;61036;53.224;6.554;2023-03-12T00:49:10;8.67;;;4.57;;
72895;SDS011;61036;53.224;6.554;2023-03-12T00:51:36;6.90;;;3.87;;
72895;SDS011;61036;53.224;6.554;2023-03-12T00:54:02;6.90;;;3.73;;
72895;SDS011;61036;53.224;6.554;2023-03-12T00:56:31;7.03;;;3.97;;
72895;SDS011;61036;53.224;6.554;2023-03-12T00:58:57;8.17;;;4.07;;
72895;SDS011;61036;53.224;6.554;2023-03-12T01:01:23;7.07;;;4.07;;
72895;SDS011;61036;53.224;6.554;2023-03-12T01:03:49;8.13;;;3.90;;
72895;SDS011;61036;53.224;6.554;2023-03-12T01:06:16;7.00;;;3.50;;
72895;SDS011;61036;53.224;6.554;2023-03-12T01:08:42;6.37;;;3.53;;
72895;SDS011;61036;53.224;6.554;2023-03-12T01:11:11;6.90;;;3.80;;
72895;SDS011;61036;53.224;6.554;2023-03-12T01:13:40;6.87;;;3.93;;
72895;SDS011;61036;53.224;6.554;2023-03-12T01:16:06;6.23;;;3.23;;
72895;SDS011;61036;53.224;6.554;2023-03-12T01:18:32;8.77;;;3.60;;
72895;SDS011;61036;53.224;6.554;2023-03-12T01:20:58;8.10;;;3.90;;
72895;SDS011;61036;53.224;6.554;2023-03-12T01:23:24;5.97;;;3.47;;
72895;SDS011;61036;53.224;6.554;2023-03-12T01:25:49;6.27;;;3.70;;
72895;SDS011;61036;53.224;6.554;2023-03-12T01:28:16;10.73;;;3.90;;
72895;SDS011;61036;53.224;6.554;2023-03-12T01:30:43;7.37;;;3.87;;
72895;SDS011;61036;53.224;6.554;2023-03-12T01:33:08;10.47;;;4.23;;
72895;SDS011;61036;53.224;6.554;2023-03-12T01:35:37;7.30;;;3.67;;
72895;SDS011;61036;53.224;6.554;2023-03-12T01:38:08;9.37;;;3.80;;
72895;SDS011;61036;53.224;6.554;2023-03-12T01:40:39;7.60;;;4.30;;
72895;SDS011;61036;53.224;6.554;2023-03-12T01:48:44;6.97;;;4.67;;
72895;SDS011;61036;53.224;6.554;2023-03-12T01:51:13;6.50;;;3.83;;
72895;SDS011;61036;53.224;6.554;2023-03-12T01:53:41;8.83;;;4.70;;
72895;SDS011;61036;53.224;6.554;2023-03-12T01:56:09;7.33;;;4.40;;
72895;SDS011;61036;53.224;6.554;2023-03-12T01:58:37;8.40;;;3.80;;
72895;SDS011;61036;53.224;6.554;2023-03-12T02:01:06;7.90;;;4.30;;
72895;SDS011;61036;53.224;6.554;2023-03-12T02:03:32;9.23;;;4.20;;
72895;SDS011;61036;53.224;6.554;2023-03-12T02:06:07;7.70;;;4.27;;
72895;SDS011;61036;53.224;6.554;2023-03-12T02:08:38;7.67;;;3.63;;
72895;SDS011;61036;53.224;6.554;2023-03-12T02:11:10;7.33;;;4.00;;
72895;SDS011;61036;53.224;6.554;2023-03-12T02:13:35;8.57;;;3.90;;
72895;SDS011;61036;53.224;6.554;2023-03-12T02:16:01;8.33;;;3.97;;
72895;SDS011;61036;53.224;6.554;2023-03-12T02:18:28;8.20;;;3.20;;
72895;SDS011;61036;53.224;6.554;2023-03-12T02:21:07;10.03;;;3.73;;
72895;SDS011;61036;53.224;6.554;2023-03-12T02:23:51;4.80;;;2.77;;
72895;SDS011;61036;53.224;6.554;2023-03-12T02:26:28;5.37;;;2.97;;
72895;SDS011;61036;53.224;6.554;2023-03-12T02:28:55;7.10;;;3.00;;
72895;SDS011;61036;53.224;6.554;2023-03-12T02:31:24;6.63;;;3.50;;
72895;SDS011;61036;53.224;6.554;2023-03-12T02:33:52;8.77;;;3.40;;
72895;SDS011;61036;53.224;6.554;2023-03-12T02:36:20;5.43;;;2.97;;
72895;SDS011;61036;53.224;6.554;2023-03-12T02:38:47;5.43;;;3.27;;
72895;SDS011;61036;53.224;6.554;2023-03-12T02:43:44;6.53;;;2.90;;
72895;SDS011;61036;53.224;6.554;2023-03-12T02:46:13;8.97;;;3.70;;
72895;SDS011;61036;53.224;6.554;2023-03-12T02:48:39;8.00;;;3.40;;
72895;SDS011;61036;53.224;6.554;2023-03-12T02:51:04;6.67;;;3.03;;
72895;SDS011;61036;53.224;6.554;2023-03-12T02:53:30;6.60;;;3.20;;
72895;SDS011;61036;53.224;6.554;2023-03-12T02:55:56;7.23;;;3.00;;
72895;SDS011;61036;53.224;6.554;2023-03-12T02:58:22;7.33;;;3.10;;
72895;SDS011;61036;53.224;6.554;2023-03-12T03:00:47;7.43;;;3.07;;
72895;SDS011;61036;53.224;6.554;2023-03-12T03:03:13;8.20;;;2.90;;
72895;SDS011;61036;53.224;6.554;2023-03-12T03:05:39;4.57;;;2.40;;
72895;SDS011;61036;53.224;6.554;2023-03-12T03:08:05;6.27;;;3.17;;
72895;SDS011;61036;53.224;6.554;2023-03-12T03:10:33;6.83;;;2.63;;
72895;SDS011;61036;53.224;6.554;2023-03-12T03:12:59;5.93;;;2.70;;
72895;SDS011;61036;53.224;6.554;2023-03-12T03:15:24;6.73;;;2.57;;
72895;SDS011;61036;53.224;6.554;2023-03-12T03:17:50;6.63;;;2.80;;
72895;SDS011;61036;53.224;6.554;2023-03-12T03:20:16;8.33;;;3.00;;
72895;SDS011;61036;53.224;6.554;2023-03-12T03:22:41;7.57;;;3.20;;
72895;SDS011;61036;53.224;6.554;2023-03-12T03:25:09;8.47;;;3.17;;
72895;SDS011;61036;53.224;6.554;2023-03-12T03:27:35;8.33;;;3.47;;
72895;SDS011;61036;53.224;6.554;2023-03-12T03:30:01;6.27;;;2.70;;
72895;SDS011;61036;53.224;6.554;2023-03-12T03:32:30;9.00;;;3.10;;
72895;SDS011;61036;53.224;6.554;2023-03-12T03:34:56;7.00;;;3.53;;
72895;SDS011;61036;53.224;6.554;2023-03-12T03:37:24;7.00;;;3.63;;
72895;SDS011;61036;53.224;6.554;2023-03-12T03:39:50;5.90;;;3.17;;
72895;SDS011;61036;53.224;6.554;2023-03-12T03:42:15;5.70;;;3.37;;
72895;SDS011;61036;53.224;6.554;2023-03-12T03:44:42;7.13;;;3.40;;
72895;SDS011;61036;53.224;6.554;2023-03-12T03:47:07;5.80;;;2.97;;
72895;SDS011;61036;53.224;6.554;2023-03-12T03:49:33;6.00;;;3.17;;
72895;SDS011;61036;53.224;6.554;2023-03-12T03:52:00;6.53;;;3.20;;
72895;SDS011;61036;53.224;6.554;2023-03-12T03:54:32;7.10;;;3.33;;
72895;SDS011;61036;53.224;6.554;2023-03-12T03:56:58;6.67;;;3.20;;
72895;SDS011;61036;53.224;6.554;2023-03-12T03:59:25;8.97;;;3.60;;
72895;SDS011;61036;53.224;6.554;2023-03-12T04:01:51;7.50;;;3.60;;
72895;SDS011;61036;53.224;6.554;2023-03-12T04:04:16;7.27;;;4.20;;
72895;SDS011;61036;53.224;6.554;2023-03-12T04:06:44;7.47;;;3.90;;
72895;SDS011;61036;53.224;6.554;2023-03-12T04:09:11;9.90;;;4.13;;
72895;SDS011;61036;53.224;6.554;2023-03-12T04:11:38;7.90;;;4.43;;
72895;SDS011;61036;53.224;6.554;2023-03-12T04:14:06;7.13;;;4.03;;
72895;SDS011;61036;53.224;6.554;2023-03-12T04:16:33;7.67;;;3.70;;
72895;SDS011;61036;53.224;6.554;2023-03-12T04:19:00;7.30;;;3.47;;
72895;SDS011;61036;53.224;6.554;2023-03-12T04:21:26;6.37;;;3.37;;
72895;SDS011;61036;53.224;6.554;2023-03-12T04:23:52;7.67;;;3.70;;
72895;SDS011;61036;53.224;6.554;2023-03-12T04:26:20;12.23;;;3.93;;
72895;SDS011;61036;53.224;6.554;2023-03-12T04:28:46;9.20;;;3.43;;
72895;SDS011;61036;53.224;6.554;2023-03-12T04:31:12;9.60;;;3.77;;
72895;SDS011;61036;53.224;6.554;2023-03-12T04:33:48;7.40;;;3.70;;
72895;SDS011;61036;53.224;6.554;2023-03-12T04:36:17;10.97;;;3.87;;
72895;SDS011;61036;53.224;6.554;2023-03-12T04:38:45;7.97;;;3.83;;
72895;SDS011;61036;53.224;6.554;2023-03-12T04:41:13;5.83;;;3.63;;
72895;SDS011;61036;53.224;6.554;2023-03-12T04:44:03;6.30;;;3.63;;
72895;SDS011;61036;53.224;6.554;2023-03-12T04:46:31;9.00;;;3.70;;
72895;SDS011;61036;53.224;6.554;2023-03-12T04:48:57;8.73;;;4.17;;
72895;SDS011;61036;53.224;6.554;2023-03-12T04:51:27;8.07;;;3.80;;
72895;SDS011;61036;53.224;6.554;2023-03-12T04:53:54;6.50;;;3.63;;
72895;SDS011;61036;53.224;6.554;2023-03-12T04:56:20;8.43;;;3.73;;
72895;SDS011;61036;53.224;6.554;2023-03-12T04:58:46;9.20;;;3.67;;
72895;SDS011;61036;53.224;6.554;2023-03-12T05:01:25;7.67;;;3.60;;
72895;SDS011;61036;53.224;6.554;2023-03-12T05:03:53;5.80;;;3.63;;
72895;SDS011;61036;53.224;6.554;2023-03-12T05:06:19;6.97;;;4.13;;
72895;SDS011;61036;53.224;6.554;2023-03-12T05:08:46;7.23;;;3.57;;
72895;SDS011;61036;53.224;6.554;2023-03-12T05:11:13;9.57;;;3.97;;
72895;SDS011;61036;53.224;6.554;2023-03-12T05:13:41;8.40;;;4.30;;
72895;SDS011;61036;53.224;6.554;2023-03-12T05:16:07;8.63;;;3.83;;
72895;SDS011;61036;53.224;6.554;2023-03-12T05:18:33;9.33;;;4.67;;
72895;SDS011;61036;53.224;6.554;2023-03-12T05:21:00;8.57;;;3.83;;
72895;SDS011;61036;53.224;6.554;2023-03-12T05:23:28;9.53;;;4.37;;
72895;SDS011;61036;53.224;6.554;2023-03-12T05:25:55;8.07;;;4.40;;
72895;SDS011;61036;53.224;6.554;2023-03-12T05:28:21;7.17;;;4.17;;
72895;SDS011;61036;53.224;6.554;2023-03-12T05:30:56;6.47;;;3.70;;
72895;SDS011;61036;53.224;6.554;2023-03-12T05:33:22;9.13;;;4.00;;
72895;SDS011;61036;53.224;6.554;2023-03-12T05:35:48;7.93;;;4.20;;
72895;SDS011;61036;53.224;6.554;2023-03-12T05:38:15;9.90;;;4.27;;
72895;SDS011;61036;53.224;6.554;2023-03-12T05:40:40;7.70;;;4.30;;
72895;SDS011;61036;53.224;6.554;2023-03-12T05:43:06;8.57;;;3.67;;
72895;SDS011;61036;53.224;6.554;2023-03-12T05:45:32;10.23;;;4.50;;
72895;SDS011;61036;53.224;6.554;2023-03-12T05:47:58;9.43;;;4.13;;
72895;SDS011;61036;53.224;6.554;2023-03-12T05:50:44;7.80;;;3.90;;
72895;SDS011;61036;53.224;6.554;2023-03-12T05:53:10;7.10;;;3.87;;
72895;SDS011;61036;53.224;6.554;2023-03-12T05:55:37;11.17;;;4.23;;
72895;SDS011;61036;53.224;6.554;2023-03-12T05:58:04;7.43;;;3.90;;
72895;SDS011;61036;53.224;6.554;2023-03-12T06:00:30;8.73;;;3.63;;
72895;SDS011;61036;53.224;6.554;2023-03-12T06:02:57;8.67;;;4.60;;
72895;SDS011;61036;53.224;6.554;2023-03-12T06:05:23;6.97;;;4.43;;
72895;SDS011;61036;53.224;6.554;2023-03-12T06:07:49;11.60;;;4.20;;
72895;SDS011;61036;53.224;6.554;2023-03-12T06:10:15;8.37;;;3.67;;
72895;SDS011;61036;53.224;6.554;2023-03-12T06:12:40;9.13;;;4.00;;
72895;SDS011;61036;53.224;6.554;2023-03-12T06:15:08;9.87;;;4.30;;
72895;SDS011;61036;53.224;6.554;2023-03-12T06:17:34;8.80;;;4.00;;
72895;SDS011;61036;53.224;6.554;2023-03-12T06:20:00;7.40;;;4.03;;
72895;SDS011;61036;53.224;6.554;2023-03-12T06:22:26;9.37;;;4.37;;
72895;SDS011;61036;53.224;6.554;2023-03-12T06:24:52;9.00;;;5.10;;
72895;SDS011;61036;53.224;6.554;2023-03-12T06:27:19;8.67;;;4.13;;
72895;SDS011;61036;53.224;6.554;2023-03-12T06:29:46;9.77;;;3.90;;
72895;SDS011;61036;53.224;6.554;2023-03-12T06:32:12;7.10;;;3.93;;
72895;SDS011;61036;53.224;6.554;2023-03-12T06:34:39;8.97;;;4.67;;
72895;SDS011;61036;53.224;6.554;2023-03-12T06:37:04;8.23;;;4.37;;
72895;SDS011;61036;53.224;6.554;2023-03-12T06:39:30;9.60;;;4.30;;
72895;SDS011;61036;53.224;6.554;2023-03-12T06:41:55;7.60;;;4.40;;
72895;SDS011;61036;53.224;6.554;2023-03-12T06:44:21;8.63;;;3.90;;
72895;SDS011;61036;53.224;6.554;2023-03-12T06:46:47;10.60;;;4.60;;
72895;SDS011;61036;53.224;6.554;2023-03-12T06:49:13;8.00;;;4.77;;
72895;SDS011;61036;53.224;6.554;2023-03-12T06:51:41;7.47;;;4.07;;
72895;SDS011;61036;53.224;6.554;2023-03-12T06:54:06;7.67;;;4.30;;
72895;SDS011;61036;53.224;6.554;2023-03-12T06:56:32;8.90;;;4.57;;
72895;SDS011;61036;53.224;6.554;2023-03-12T06:58:58;8.83;;;4.20;;
72895;SDS011;61036;53.224;6.554;2023-03-12T07:01:24;10.10;;;4.90;;
72895;SDS011;61036;53.224;6.554;2023-03-12T07:03:49;8.23;;;4.70;;
72895;SDS011;61036;53.224;6.554;2023-03-12T07:06:18;6.77;;;3.90;;
72895;SDS011;61036;53.224;6.554;2023-03-12T07:08:46;9.17;;;5.00;;
72895;SDS011;61036;53.224;6.554;2023-03-12T07:11:12;10.73;;;4.97;;
72895;SDS011;61036;53.224;6.554;2023-03-12T07:13:38;10.40;;;5.30;;
72895;SDS011;61036;53.224;6.554;2023-03-12T07:16:03;9.00;;;5.07;;
72895;SDS011;61036;53.224;6.554;2023-03-12T07:18:29;10.50;;;5.37;;
72895;SDS011;61036;53.224;6.554;2023-03-12T07:20:55;9.23;;;4.77;;
72895;SDS011;61036;53.224;6.554;2023-03-12T07:23:20;9.87;;;5.67;;
72895;SDS011;61036;53.224;6.554;2023-03-12T07:25:46;8.20;;;5.17;;
72895;SDS011;61036;53.224;6.554;2023-03-12T07:28:13;9.00;;;6.07;;
72895;SDS011;61036;53.224;6.554;2023-03-12T07:30:39;10.87;;;5.83;;
72895;SDS011;61036;53.224;6.554;2023-03-12T07:33:07;11.73;;;5.97;;
72895;SDS011;61036;53.224;6.554;2023-03-12T07:35:34;13.20;;;6.27;;
72895;SDS011;61036;53.224;6.554;2023-03-12T07:38:01;11.87;;;6.30;;
72895;SDS011;61036;53.224;6.554;2023-03-12T07:40:27;13.87;;;6.90;;
72895;SDS011;61036;53.224;6.554;2023-03-12T07:42:52;13.97;;;6.77;;
72895;SDS011;61036;53.224;6.554;2023-03-12T07:45:18;17.43;;;7.43;;
72895;SDS011;61036;53.224;6.554;2023-03-12T07:47:44;11.90;;;7.73;;
72895;SDS011;61036;53.224;6.554;2023-03-12T07:50:10;16.57;;;8.17;;
72895;SDS011;61036;53.224;6.554;2023-03-12T07:52:36;10.73;;;7.50;;
72895;SDS011;61036;53.224;6.554;2023-03-12T07:55:01;16.57;;;8.60;;
72895;SDS011;61036;53.224;6.554;2023-03-12T07:57:27;12.23;;;8.40;;
72895;SDS011;61036;53.224;6.554;2023-03-12T07:59:53;15.60;;;8.90;;
72895;SDS011;61036;53.224;6.554;2023-03-12T08:02:18;15.83;;;8.90;;
72895;SDS011;61036;53.224;6.554;2023-03-12T08:04:44;12.80;;;8.50;;
72895;SDS011;61036;53.224;6.554;2023-03-12T08:07:10;14.53;;;9.07;;
72895;SDS011;61036;53.224;6.554;2023-03-12T08:09:37;11.83;;;8.53;;
72895;SDS011;61036;53.224;6.554;2023-03-12T08:12:03;14.33;;;8.73;;
72895;SDS011;61036;53.224;6.554;2023-03-12T08:14:29;14.37;;;9.73;;
72895;SDS011;61036;53.224;6.554;2023-03-12T08:16:58;15.60;;;9.53;;
72895;SDS011;61036;53.224;6.554;2023-03-12T08:19:24;13.43;;;9.50;;
72895;SDS011;61036;53.224;6.554;2023-03-12T08:21:50;12.80;;;9.30;;
72895;SDS011;61036;53.224;6.554;2023-03-12T08:24:17;16.50;;;11.00;;
72895;SDS011;61036;53.224;6.554;2023-03-12T08:26:46;13.03;;;10.20;;
72895;SDS011;61036;53.224;6.554;2023-03-12T08:29:14;14.13;;;10.07;;
72895;SDS011;61036;53.224;6.554;2023-03-12T08:31:41;15.37;;;10.63;;
72895;SDS011;61036;53.224;6.554;2023-03-12T08:34:06;16.30;;;10.77;;
72895;SDS011;61036;53.224;6.554;2023-03-12T08:36:32;15.20;;;10.43;;
72895;SDS011;61036;53.224;6.554;2023-03-12T08:38:57;13.57;;;9.80;;
72895;SDS011;61036;53.224;6.554;2023-03-12T08:41:23;13.17;;;9.67;;
72895;SDS011;61036;53.224;6.554;2023-03-12T08:43:51;16.37;;;10.30;;
72895;SDS011;61036;53.224;6.554;2023-03-12T08:46:16;13.83;;;8.90;;
72895;SDS011;61036;53.224;6.554;2023-03-12T08:48:42;14.73;;;9.53;;
72895;SDS011;61036;53.224;6.554;2023-03-12T08:51:07;15.87;;;10.47;;
72895;SDS011;61036;53.224;6.554;2023-03-12T08:53:37;17.87;;;11.47;;
72895;SDS011;61036;53.224;6.554;2023-03-12T08:56:03;16.60;;;11.63;;
72895;SDS011;61036;53.224;6.554;2023-03-12T08:58:29;14.53;;;10.43;;
72895;SDS011;61036;53.224;6.554;2023-03-12T09:00:55;15.90;;;12.23;;
72895;SDS011;61036;53.224;6.554;2023-03-12T09:03:22;13.33;;;10.00;;
72895;SDS011;61036;53.224;6.554;2023-03-12T09:05:48;16.33;;;11.90;;
72895;SDS011;61036;53.224;6.554;2023-03-12T09:08:14;16.97;;;10.63;;
72895;SDS011;61036;53.224;6.554;2023-03-12T09:10:48;12.80;;;9.17;;
72895;SDS011;61036;53.224;6.554;2023-03-12T09:13:14;13.83;;;9.20;;
72895;SDS011;61036;53.224;6.554;2023-03-12T09:15:40;20.83;;;17.63;;
72895;SDS011;61036;53.224;6.554;2023-03-12T09:18:06;15.60;;;11.77;;
72895;SDS011;61036;53.224;6.554;2023-03-12T09:20:32;12.57;;;8.83;;
72895;SDS011;61036;53.224;6.554;2023-03-12T09:22:57;12.80;;;8.87;;
72895;SDS011;61036;53.224;6.554;2023-03-12T09:25:23;11.57;;;8.70;;
72895;SDS011;61036;53.224;6.554;2023-03-12T09:27:48;13.33;;;8.50;;
72895;SDS011;61036;53.224;6.554;2023-03-12T09:30:15;11.90;;;8.93;;
72895;SDS011;61036;53.224;6.554;2023-03-12T09:32:43;14.97;;;9.97;;
72895;SDS011;61036;53.224;6.554;2023-03-12T09:35:12;12.53;;;9.10;;
72895;SDS011;61036;53.224;6.554;2023-03-12T09:37:39;14.37;;;10.20;;
72895;SDS011;61036;53.224;6.554;2023-03-12T09:40:06;12.47;;;9.57;;
72895;SDS011;61036;53.224;6.554;2023-03-12T09:45:16;13.07;;;9.80;;
72895;SDS011;61036;53.224;6.554;2023-03-12T09:47:51;12.87;;;9.53;;
72895;SDS011;61036;53.224;6.554;2023-03-12T09:50:30;11.23;;;9.53;;
72895;SDS011;61036;53.224;6.554;2023-03-12T09:55:52;15.97;;;10.40;;
72895;SDS011;61036;53.224;6.554;2023-03-12T09:58:25;11.53;;;9.30;;
72895;SDS011;61036;53.224;6.554;2023-03-12T10:00:54;14.57;;;10.47;;
72895;SDS011;61036;53.224;6.554;2023-03-12T10:23:24;16.67;;;14.67;;
72895;SDS011;61036;53.224;6.554;2023-03-12T10:29:16;14.47;;;11.63;;
72895;SDS011;61036;53.224;6.554;2023-03-12T10:31:51;12.97;;;9.97;;
72895;SDS011;61036;53.224;6.554;2023-03-12T10:36:57;83.90;;;49.87;;
72895;SDS011;61036;53.224;6.554;2023-03-12T10:39:26;29.00;;;25.93;;
72895;SDS011;61036;53.224;6.554;2023-03-12T10:41:52;13.70;;;10.23;;
72895;SDS011;61036;53.224;6.554;2023-03-12T10:44:23;13.07;;;11.30;;
72895;SDS011;61036;53.224;6.554;2023-03-12T10:46:57;12.37;;;10.07;;
72895;SDS011;61036;53.224;6.554;2023-03-12T10:49:28;17.33;;;14.40;;
72895;SDS011;61036;53.224;6.554;2023-03-12T10:52:01;13.13;;;11.60;;
72895;SDS011;61036;53.224;6.554;2023-03-12T10:54:36;13.60;;;12.17;;
72895;SDS011;61036;53.224;6.554;2023-03-12T10:57:07;13.40;;;11.00;;
72895;SDS011;61036;53.224;6.554;2023-03-12T10:59:34;13.30;;;10.53;;
72895;SDS011;61036;53.224;6.554;2023-03-12T11:05:19;13.97;;;11.27;;
72895;SDS011;61036;53.224;6.554;2023-03-12T11:07:54;12.17;;;10.87;;
72895;SDS011;61036;53.224;6.554;2023-03-12T11:10:21;12.67;;;10.23;;
72895;SDS011;61036;53.224;6.554;2023-03-12T11:15:27;13.80;;;10.80;;
72895;SDS011;61036;53.224;6.554;2023-03-12T11:18:16;13.27;;;9.77;;
72895;SDS011;61036;53.224;6.554;2023-03-12T11:20:46;13.60;;;11.17;;
72895;SDS011;61036;53.224;6.554;2023-03-12T11:23:21;17.10;;;11.83;;
72895;SDS011;61036;53.224;6.554;2023-03-12T11:25:53;15.00;;;12.27;;
72895;SDS011;61036;53.224;6.554;2023-03-12T11:28:30;12.00;;;10.53;;
72895;SDS011;61036;53.224;6.554;2023-03-12T11:31:01;13.83;;;11.03;;
72895;SDS011;61036;53.224;6.554;2023-03-12T11:33:32;14.90;;;11.73;;
72895;SDS011;61036;53.224;6.554;2023-03-12T11:36:10;16.33;;;12.17;;
72895;SDS011;61036;53.224;6.554;2023-03-12T11:41:52;13.37;;;10.73;;
72895;SDS011;61036;53.224;6.554;2023-03-12T11:44:26;18.03;;;12.70;;
72895;SDS011;61036;53.224;6.554;2023-03-12T12:00:48;15.60;;;12.10;;
72895;SDS011;61036;53.224;6.554;2023-03-12T12:06:05;16.60;;;12.30;;
72895;SDS011;61036;53.224;6.554;2023-03-12T12:08:49;13.43;;;10.93;;
72895;SDS011;61036;53.224;6.554;2023-03-12T12:14:00;12.60;;;10.10;;
72895;SDS011;61036;53.224;6.554;2023-03-12T12:19:27;15.17;;;10.87;;
72895;SDS011;61036;53.224;6.554;2023-03-12T12:35:59;13.03;;;11.00;;
72895;SDS011;61036;53.224;6.554;2023-03-12T12:38:35;14.10;;;11.37;;
72895;SDS011;61036;53.224;6.554;2023-03-12T12:41:08;13.53;;;11.23;;
72895;SDS011;61036;53.224;6.554;2023-03-12T12:43:39;15.43;;;11.13;;
72895;SDS011;61036;53.224;6.554;2023-03-12T12:46:21;15.53;;;11.23;;
72895;SDS011;61036;53.224;6.554;2023-03-12T12:49:11;14.57;;;10.20;;
72895;SDS011;61036;53.224;6.554;2023-03-12T12:51:46;13.80;;;11.00;;
72895;SDS011;61036;53.224;6.554;2023-03-12T12:59:34;14.33;;;10.50;;
72895;SDS011;61036;53.224;6.554;2023-03-12T13:02:03;14.57;;;10.33;;
72895;SDS011;61036;53.224;6.554;2023-03-12T13:04:40;15.53;;;10.23;;
72895;SDS011;61036;53.224;6.554;2023-03-12T13:15:00;15.13;;;8.97;;
72895;SDS011;61036;53.224;6.554;2023-03-12T13:20:27;14.30;;;9.97;;
72895;SDS011;61036;53.224;6.554;2023-03-12T13:25:59;15.63;;;10.20;;
72895;SDS011;61036;53.224;6.554;2023-03-12T13:33:55;18.57;;;10.40;;
72895;SDS011;61036;53.224;6.554;2023-03-12T13:36:23;14.80;;;9.23;;
72895;SDS011;61036;53.224;6.554;2023-03-12T13:38:57;19.20;;;9.90;;
72895;SDS011;61036;53.224;6.554;2023-03-12T13:44:37;19.33;;;10.57;;
72895;SDS011;61036;53.224;6.554;2023-03-12T13:50:02;18.30;;;8.70;;
72895;SDS011;61036;53.224;6.554;2023-03-12T13:52:41;16.83;;;8.63;;
72895;SDS011;61036;53.224;6.554;2023-03-12T13:55:18;23.27;;;9.03;;
72895;SDS011;61036;53.224;6.554;2023-03-12T13:57:47;18.27;;;7.80;;
72895;SDS011;61036;53.224;6.554;2023-03-12T14:02:51;20.50;;;8.27;;
72895;SDS011;61036;53.224;6.554;2023-03-12T14:05:20;21.20;;;7.00;;
72895;SDS011;61036;53.224;6.554;2023-03-12T14:07:48;23.80;;;7.23;;
72895;SDS011;61036;53.224;6.554;2023-03-12T14:13:22;18.93;;;6.27;;
72895;SDS011;61036;53.224;6.554;2023-03-12T14:18:32;23.30;;;6.97;;
72895;SDS011;61036;53.224;6.554;2023-03-12T14:21:05;16.63;;;5.43;;
72895;SDS011;61036;53.224;6.554;2023-03-12T14:23:34;23.23;;;6.90;;
72895;SDS011;61036;53.224;6.554;2023-03-12T14:26:06;18.63;;;6.07;;
72895;SDS011;61036;53.224;6.554;2023-03-12T14:28:37;19.97;;;6.47;;
72895;SDS011;61036;53.224;6.554;2023-03-12T14:31:06;17.20;;;5.37;;
72895;SDS011;61036;53.224;6.554;2023-03-12T14:36:25;20.93;;;6.33;;
72895;SDS011;61036;53.224;6.554;2023-03-12T14:38:59;22.97;;;6.57;;
72895;SDS011;61036;53.224;6.554;2023-03-12T14:41:39;26.40;;;7.80;;
72895;SDS011;61036;53.224;6.554;2023-03-12T14:44:27;19.70;;;6.17;;
72895;SDS011;61036;53.224;6.554;2023-03-12T14:46:58;20.23;;;5.97;;
72895;SDS011;61036;53.224;6.554;2023-03-12T14:49:23;18.23;;;5.77;;
72895;SDS011;61036;53.224;6.554;2023-03-12T14:51:49;20.40;;;5.60;;
72895;SDS011;61036;53.224;6.554;2023-03-12T14:54:18;20.20;;;5.80;;
72895;SDS011;61036;53.224;6.554;2023-03-12T14:56:48;19.10;;;5.77;;
72895;SDS011;61036;53.224;6.554;2023-03-12T15:01:49;26.73;;;6.87;;
72895;SDS011;61036;53.224;6.554;2023-03-12T15:04:16;21.83;;;5.60;;
72895;SDS011;61036;53.224;6.554;2023-03-12T15:06:45;19.77;;;6.23;;
72895;SDS011;61036;53.224;6.554;2023-03-12T15:09:17;23.77;;;6.07;;
72895;SDS011;61036;53.224;6.554;2023-03-12T15:14:23;22.43;;;6.37;;
72895;SDS011;61036;53.224;6.554;2023-03-12T15:16:51;23.67;;;5.63;;
72895;SDS011;61036;53.224;6.554;2023-03-12T15:19:19;26.77;;;5.90;;
72895;SDS011;61036;53.224;6.554;2023-03-12T15:21:53;26.07;;;6.17;;
72895;SDS011;61036;53.224;6.554;2023-03-12T15:24:20;23.17;;;6.30;;
72895;SDS011;61036;53.224;6.554;2023-03-12T15:26:45;31.20;;;6.87;;
72895;SDS011;61036;53.224;6.554;2023-03-12T15:29:26;21.83;;;6.17;;
72895;SDS011;61036;53.224;6.554;2023-03-12T15:31:56;27.07;;;6.33;;
72895;SDS011;61036;53.224;6.554;2023-03-12T15:36:56;27.70;;;7.20;;
72895;SDS011;61036;53.224;6.554;2023-03-12T15:39:24;30.67;;;7.40;;
72895;SDS011;61036;53.224;6.554;2023-03-12T15:41:54;28.83;;;7.17;;
72895;SDS011;61036;53.224;6.554;2023-03-12T15:44:24;25.77;;;6.10;;
72895;SDS011;61036;53.224;6.554;2023-03-12T15:46:56;29.17;;;7.80;;
72895;SDS011;61036;53.224;6.554;2023-03-12T15:49:30;28.53;;;6.70;;
72895;SDS011;61036;53.224;6.554;2023-03-12T15:52:06;27.07;;;7.57;;
72895;SDS011;61036;53.224;6.554;2023-03-12T16:05:18;34.40;;;6.57;;
72895;SDS011;61036;53.224;6.554;2023-03-12T16:07:46;26.90;;;6.17;;
72895;SDS011;61036;53.224;6.554;2023-03-12T16:10:12;23.77;;;6.47;;
72895;SDS011;61036;53.224;6.554;2023-03-12T16:12:40;33.07;;;7.80;;
72895;SDS011;61036;53.224;6.554;2023-03-12T16:15:11;32.97;;;7.20;;
72895;SDS011;61036;53.224;6.554;2023-03-12T16:17:38;24.07;;;6.97;;
72895;SDS011;61036;53.224;6.554;2023-03-12T16:20:04;28.57;;;6.67;;
72895;SDS011;61036;53.224;6.554;2023-03-12T16:22:30;27.83;;;7.77;;
72895;SDS011;61036;53.224;6.554;2023-03-12T16:24:56;34.17;;;8.67;;
72895;SDS011;61036;53.224;6.554;2023-03-12T16:27:21;33.77;;;8.77;;
72895;SDS011;61036;53.224;6.554;2023-03-12T16:29:47;30.47;;;8.33;;
72895;SDS011;61036;53.224;6.554;2023-03-12T16:32:13;32.97;;;8.90;;
72895;SDS011;61036;53.224;6.554;2023-03-12T16:34:43;33.90;;;8.60;;
72895;SDS011;61036;53.224;6.554;2023-03-12T16:37:12;23.40;;;6.60;;
72895;SDS011;61036;53.224;6.554;2023-03-12T16:39:38;28.23;;;7.27;;
72895;SDS011;61036;53.224;6.554;2023-03-12T16:42:15;27.70;;;6.57;;
72895;SDS011;61036;53.224;6.554;2023-03-12T16:44:42;32.23;;;8.30;;
72895;SDS011;61036;53.224;6.554;2023-03-12T16:47:11;28.83;;;6.60;;
72895;SDS011;61036;53.224;6.554;2023-03-12T16:49:38;32.23;;;7.27;;
72895;SDS011;61036;53.224;6.554;2023-03-12T16:52:13;29.33;;;6.90;;
72895;SDS011;61036;53.224;6.554;2023-03-12T16:54:42;27.27;;;6.70;;
72895;SDS011;61036;53.224;6.554;2023-03-12T16:57:11;28.43;;;7.97;;
72895;SDS011;61036;53.224;6.554;2023-03-12T16:59:46;30.13;;;6.37;;
72895;SDS011;61036;53.224;6.554;2023-03-12T17:02:15;27.57;;;7.03;;
72895;SDS011;61036;53.224;6.554;2023-03-12T17:04:42;27.57;;;6.50;;
72895;SDS011;61036;53.224;6.554;2023-03-12T17:07:08;25.97;;;6.83;;
72895;SDS011;61036;53.224;6.554;2023-03-12T17:09:34;26.43;;;6.97;;